sensor_id;sensor_type;location;lat;lon;timestamp;pressure;altitude;pressure_sealevel;temperature;humidity
44198;BME280;30157;55.512;37.764;2024-02-26T00:02:24;101043.31;;;-3.65;69.50
44198;BME280;30157;55.512;37.764;2024-02-26T00:04:50;101135.13;;;-3.11;68.97
44198;BME280;30157;55.512;37.764;2024-02-26T00:07:16;101162.28;;;-2.87;68.91
44198;BME280;30157;55.512;37.764;2024-02-26T00:09:42;101164.38;;;-2.81;68.43
44198;BME280;30157;55.512;37.764;2024-02-26T00:12:07;101167.69;;;-2.82;68.87
44198;BME280;30157;55.512;37.764;2024-02-26T00:14:33;101174.91;;;-2.88;68.31
44198;BME280;30157;55.512;37.764;2024-02-26T00:17:00;101167.47;;;-2.85;68.44
44198;BME280;30157;55.512;37.764;2024-02-26T00:19:25;101116.38;;;-3.25;69.03
44198;BME280;30157;55.512;37.764;2024-02-26T00:21:51;101157.78;;;-3.02;69.72
44198;BME280;30157;55.512;37.764;2024-02-26T00:24:19;101042.31;;;-3.67;69.13
44198;BME280;30157;55.512;37.764;2024-02-26T00:26:45;101153.09;;;-2.96;69.00
44198;BME280;30157;55.512;37.764;2024-02-26T00:29:10;101108.09;;;-3.23;68.77
44198;BME280;30157;55.512;37.764;2024-02-26T00:31:37;101160.50;;;-2.88;69.14
44198;BME280;30157;55.512;37.764;2024-02-26T00:34:03;101038.56;;;-3.60;68.60
44198;BME280;30157;55.512;37.764;2024-02-26T00:36:29;101150.72;;;-3.07;69.06
44198;BME280;30157;55.512;37.764;2024-02-26T00:38:55;101154.78;;;-3.09;69.01
44198;BME280;30157;55.512;37.764;2024-02-26T00:41:21;101052.47;;;-3.67;69.11
44198;BME280;30157;55.512;37.764;2024-02-26T00:43:47;101139.88;;;-3.04;68.59
44198;BME280;30157;55.512;37.764;2024-02-26T00:46:12;101104.22;;;-3.29;68.80
44198;BME280;30157;55.512;37.764;2024-02-26T00:48:38;101119.56;;;-3.28;69.03
44198;BME280;30157;55.512;37.764;2024-02-26T00:51:05;101009.31;;;-3.91;69.18
44198;BME280;30157;55.512;37.764;2024-02-26T00:53:31;101151.38;;;-3.09;69.54
44198;BME280;30157;55.512;37.764;2024-02-26T00:55:57;101134.16;;;-3.13;68.78
44198;BME280;30157;55.512;37.764;2024-02-26T00:58:27;101052.81;;;-3.74;69.01
44198;BME280;30157;55.512;37.764;2024-02-26T01:00:53;101093.09;;;-3.43;69.05
44198;BME280;30157;55.512;37.764;2024-02-26T01:03:18;101151.38;;;-3.09;68.65
44198;BME280;30157;55.512;37.764;2024-02-26T01:05:44;101037.69;;;-3.73;68.38
44198;BME280;30157;55.512;37.764;2024-02-26T01:08:10;101149.16;;;-3.16;68.80
44198;BME280;30157;55.512;37.764;2024-02-26T01:10:36;101128.50;;;-3.33;68.77
44198;BME280;30157;55.512;37.764;2024-02-26T01:13:02;101150.50;;;-3.22;68.76
44198;BME280;30157;55.512;37.764;2024-02-26T01:15:28;101152.25;;;-3.09;68.43
44198;BME280;30157;55.512;37.764;2024-02-26T01:17:54;101101.25;;;-3.35;69.09
44198;BME280;30157;55.512;37.764;2024-02-26T01:20:20;101047.50;;;-3.65;68.39
44198;BME280;30157;55.512;37.764;2024-02-26T01:22:45;101142.84;;;-3.10;68.89
44198;BME280;30157;55.512;37.764;2024-02-26T01:25:12;101145.72;;;-3.05;68.71
44198;BME280;30157;55.512;37.764;2024-02-26T01:27:38;101034.16;;;-3.75;68.20
44198;BME280;30157;55.512;37.764;2024-02-26T01:30:04;101146.94;;;-3.00;68.27
44198;BME280;30157;55.512;37.764;2024-02-26T01:32:30;101144.97;;;-3.04;68.10
44198;BME280;30157;55.512;37.764;2024-02-26T01:34:56;101061.19;;;-3.63;68.51
44198;BME280;30157;55.512;37.764;2024-02-26T01:37:22;101101.47;;;-3.44;68.64
44198;BME280;30157;55.512;37.764;2024-02-26T01:39:48;101039.44;;;-3.72;68.54
44198;BME280;30157;55.512;37.764;2024-02-26T01:42:13;101027.31;;;-3.76;68.30
44198;BME280;30157;55.512;37.764;2024-02-26T01:44:40;101141.00;;;-3.24;68.92
44198;BME280;30157;55.512;37.764;2024-02-26T01:47:07;101106.13;;;-3.27;68.15
44198;BME280;30157;55.512;37.764;2024-02-26T01:49:34;101055.44;;;-3.49;68.21
44198;BME280;30157;55.512;37.764;2024-02-26T01:52:01;101098.16;;;-3.31;68.29
44198;BME280;30157;55.512;37.764;2024-02-26T01:54:29;101108.00;;;-3.24;68.03
44198;BME280;30157;55.512;37.764;2024-02-26T01:56:55;101071.56;;;-3.60;68.80
44198;BME280;30157;55.512;37.764;2024-02-26T01:59:22;101121.91;;;-3.31;68.98
44198;BME280;30157;55.512;37.764;2024-02-26T02:01:52;101120.91;;;-3.33;68.80
44198;BME280;30157;55.512;37.764;2024-02-26T02:04:20;101033.38;;;-3.85;68.32
44198;BME280;30157;55.512;37.764;2024-02-26T02:06:47;101134.59;;;-3.19;68.94
44198;BME280;30157;55.512;37.764;2024-02-26T02:09:14;101130.19;;;-3.33;68.47
44198;BME280;30157;55.512;37.764;2024-02-26T02:11:39;101127.97;;;-3.29;68.92
44198;BME280;30157;55.512;37.764;2024-02-26T02:14:06;101120.69;;;-3.36;68.92
44198;BME280;30157;55.512;37.764;2024-02-26T02:16:32;101123.22;;;-3.36;68.86
44198;BME280;30157;55.512;37.764;2024-02-26T02:18:58;101085.69;;;-3.64;68.68
44198;BME280;30157;55.512;37.764;2024-02-26T02:21:24;101120.88;;;-3.45;68.82
44198;BME280;30157;55.512;37.764;2024-02-26T02:23:50;101102.22;;;-3.57;68.94
44198;BME280;30157;55.512;37.764;2024-02-26T02:26:16;101125.66;;;-3.38;68.92
44198;BME280;30157;55.512;37.764;2024-02-26T02:28:42;101005.47;;;-4.09;69.09
44198;BME280;30157;55.512;37.764;2024-02-26T02:31:09;101117.59;;;-3.44;69.02
44198;BME280;30157;55.512;37.764;2024-02-26T02:33:34;101121.78;;;-3.44;69.46
44198;BME280;30157;55.512;37.764;2024-02-26T02:36:01;101016.13;;;-4.13;69.60
44198;BME280;30157;55.512;37.764;2024-02-26T02:38:26;101102.13;;;-3.71;69.67
44198;BME280;30157;55.512;37.764;2024-02-26T02:40:55;101106.88;;;-3.63;69.75
44198;BME280;30157;55.512;37.764;2024-02-26T02:43:21;101108.53;;;-3.64;69.16
44198;BME280;30157;55.512;37.764;2024-02-26T02:45:47;101088.56;;;-3.71;69.42
44198;BME280;30157;55.512;37.764;2024-02-26T02:48:12;100992.41;;;-4.26;69.33
44198;BME280;30157;55.512;37.764;2024-02-26T02:50:38;101037.88;;;-3.93;68.93
44198;BME280;30157;55.512;37.764;2024-02-26T02:53:04;101095.94;;;-3.74;69.25
44198;BME280;30157;55.512;37.764;2024-02-26T02:55:30;101102.13;;;-3.71;69.66
44198;BME280;30157;55.512;37.764;2024-02-26T02:57:55;101103.09;;;-3.80;70.25
44198;BME280;30157;55.512;37.764;2024-02-26T03:00:21;101082.47;;;-3.97;69.70
44198;BME280;30157;55.512;37.764;2024-02-26T03:02:49;101094.03;;;-4.00;70.08
44198;BME280;30157;55.512;37.764;2024-02-26T03:05:15;101121.97;;;-3.77;70.49
44198;BME280;30157;55.512;37.764;2024-02-26T03:07:41;101130.13;;;-3.69;70.10
44198;BME280;30157;55.512;37.764;2024-02-26T03:10:07;100999.88;;;-4.51;69.84
44198;BME280;30157;55.512;37.764;2024-02-26T03:12:33;101116.88;;;-3.89;70.76
44198;BME280;30157;55.512;37.764;2024-02-26T03:14:59;101117.31;;;-3.82;70.46
44198;BME280;30157;55.512;37.764;2024-02-26T03:17:30;100976.25;;;-4.74;70.72
44198;BME280;30157;55.512;37.764;2024-02-26T03:19:56;100983.31;;;-4.69;71.02
44198;BME280;30157;55.512;37.764;2024-02-26T03:22:22;101131.44;;;-3.86;71.04
44198;BME280;30157;55.512;37.764;2024-02-26T03:24:48;101102.97;;;-3.94;70.97
44198;BME280;30157;55.512;37.764;2024-02-26T03:27:14;101110.38;;;-3.85;71.21
44198;BME280;30157;55.512;37.764;2024-02-26T03:29:40;101108.72;;;-3.84;70.76
44198;BME280;30157;55.512;37.764;2024-02-26T03:32:06;101090.25;;;-4.06;70.93
44198;BME280;30157;55.512;37.764;2024-02-26T03:34:32;101105.72;;;-3.91;71.48
44198;BME280;30157;55.512;37.764;2024-02-26T03:37:01;101106.25;;;-3.95;71.46
44198;BME280;30157;55.512;37.764;2024-02-26T03:39:27;101064.69;;;-4.09;71.74
44198;BME280;30157;55.512;37.764;2024-02-26T03:41:53;101085.19;;;-4.06;71.89
44198;BME280;30157;55.512;37.764;2024-02-26T03:44:19;101025.34;;;-4.49;72.00
44198;BME280;30157;55.512;37.764;2024-02-26T03:46:45;101093.44;;;-4.20;72.49
44198;BME280;30157;55.512;37.764;2024-02-26T03:49:11;101074.22;;;-4.28;72.35
44198;BME280;30157;55.512;37.764;2024-02-26T03:51:37;101116.91;;;-4.11;71.84
44198;BME280;30157;55.512;37.764;2024-02-26T03:54:03;101113.72;;;-4.08;72.54
44198;BME280;30157;55.512;37.764;2024-02-26T03:56:28;101115.81;;;-4.14;72.91
44198;BME280;30157;55.512;37.764;2024-02-26T03:58:54;100983.03;;;-4.84;73.20
44198;BME280;30157;55.512;37.764;2024-02-26T04:01:20;101075.78;;;-4.07;72.71
44198;BME280;30157;55.512;37.764;2024-02-26T04:03:46;100969.41;;;-4.75;73.03
44198;BME280;30157;55.512;37.764;2024-02-26T04:06:12;101104.50;;;-4.08;73.19
44198;BME280;30157;55.512;37.764;2024-02-26T04:08:40;101103.47;;;-4.10;73.28
44198;BME280;30157;55.512;37.764;2024-02-26T04:11:06;101110.66;;;-4.16;73.69
44198;BME280;30157;55.512;37.764;2024-02-26T04:13:33;101116.75;;;-4.24;74.07
44198;BME280;30157;55.512;37.764;2024-02-26T04:16:00;101112.59;;;-4.24;73.43
44198;BME280;30157;55.512;37.764;2024-02-26T04:18:27;101082.56;;;-4.41;73.98
44198;BME280;30157;55.512;37.764;2024-02-26T04:20:53;101109.84;;;-4.27;73.99
44198;BME280;30157;55.512;37.764;2024-02-26T04:23:19;101121.66;;;-4.15;73.36
44198;BME280;30157;55.512;37.764;2024-02-26T04:25:45;101115.94;;;-4.13;73.87
44198;BME280;30157;55.512;37.764;2024-02-26T04:28:12;101112.75;;;-4.44;74.45
44198;BME280;30157;55.512;37.764;2024-02-26T04:30:38;101131.47;;;-4.20;74.29
44198;BME280;30157;55.512;37.764;2024-02-26T04:33:04;101069.06;;;-4.52;74.05
44198;BME280;30157;55.512;37.764;2024-02-26T04:35:29;101095.69;;;-4.35;74.67
44198;BME280;30157;55.512;37.764;2024-02-26T04:37:55;101098.84;;;-4.38;74.54
44198;BME280;30157;55.512;37.764;2024-02-26T04:40:21;101124.09;;;-4.39;75.71
44198;BME280;30157;55.512;37.764;2024-02-26T04:42:47;101058.28;;;-4.72;75.06
44198;BME280;30157;55.512;37.764;2024-02-26T04:45:13;101008.59;;;-5.03;75.26
44198;BME280;30157;55.512;37.764;2024-02-26T04:47:38;101133.75;;;-4.23;75.35
44198;BME280;30157;55.512;37.764;2024-02-26T04:50:05;101124.91;;;-4.28;74.89
44198;BME280;30157;55.512;37.764;2024-02-26T04:52:31;101091.06;;;-4.63;75.08
44198;BME280;30157;55.512;37.764;2024-02-26T04:54:56;101126.69;;;-4.27;75.14
44198;BME280;30157;55.512;37.764;2024-02-26T04:57:22;101119.13;;;-4.38;75.26
44198;BME280;30157;55.512;37.764;2024-02-26T04:59:48;101094.09;;;-4.45;75.26
44198;BME280;30157;55.512;37.764;2024-02-26T05:02:14;101115.31;;;-4.32;75.28
44198;BME280;30157;55.512;37.764;2024-02-26T05:04:39;101028.53;;;-4.74;74.94
44198;BME280;30157;55.512;37.764;2024-02-26T05:07:05;101094.41;;;-4.52;75.12
44198;BME280;30157;55.512;37.764;2024-02-26T05:09:31;101100.09;;;-4.32;75.22
44198;BME280;30157;55.512;37.764;2024-02-26T05:11:57;101009.34;;;-4.82;75.44
44198;BME280;30157;55.512;37.764;2024-02-26T05:14:23;101129.03;;;-4.18;75.53
44198;BME280;30157;55.512;37.764;2024-02-26T05:16:49;101121.00;;;-4.13;75.15
44198;BME280;30157;55.512;37.764;2024-02-26T05:19:14;101101.56;;;-4.24;74.98
44198;BME280;30157;55.512;37.764;2024-02-26T05:21:40;100971.50;;;-5.25;75.49
44198;BME280;30157;55.512;37.764;2024-02-26T05:24:06;101017.50;;;-5.09;75.86
44198;BME280;30157;55.512;37.764;2024-02-26T05:26:32;101117.41;;;-4.39;75.43
44198;BME280;30157;55.512;37.764;2024-02-26T05:28:57;101121.34;;;-4.20;75.69
44198;BME280;30157;55.512;37.764;2024-02-26T05:31:26;101101.75;;;-4.33;75.52
44198;BME280;30157;55.512;37.764;2024-02-26T05:33:52;101112.66;;;-4.12;74.94
44198;BME280;30157;55.512;37.764;2024-02-26T05:36:19;101068.97;;;-4.42;75.28
44198;BME280;30157;55.512;37.764;2024-02-26T05:38:45;101130.94;;;-4.16;75.91
44198;BME280;30157;55.512;37.764;2024-02-26T05:41:12;101114.59;;;-4.19;75.77
44198;BME280;30157;55.512;37.764;2024-02-26T05:43:37;101106.91;;;-3.97;75.16
44198;BME280;30157;55.512;37.764;2024-02-26T05:46:03;101114.44;;;-3.87;75.11
44198;BME280;30157;55.512;37.764;2024-02-26T05:48:29;101051.78;;;-4.12;74.55
44198;BME280;30157;55.512;37.764;2024-02-26T05:50:54;101061.03;;;-4.12;74.92
44198;BME280;30157;55.512;37.764;2024-02-26T05:53:20;101107.84;;;-3.85;74.49
44198;BME280;30157;55.512;37.764;2024-02-26T05:55:46;101084.09;;;-4.09;74.58
44198;BME280;30157;55.512;37.764;2024-02-26T05:58:12;101105.47;;;-4.06;75.28
44198;BME280;30157;55.512;37.764;2024-02-26T06:00:37;101136.09;;;-3.80;74.88
44198;BME280;30157;55.512;37.764;2024-02-26T06:03:03;101095.66;;;-4.13;75.23
44198;BME280;30157;55.512;37.764;2024-02-26T06:05:29;101012.81;;;-4.70;74.90
44198;BME280;30157;55.512;37.764;2024-02-26T06:07:55;101126.91;;;-3.90;75.44
44198;BME280;30157;55.512;37.764;2024-02-26T06:10:21;101106.47;;;-4.03;75.17
44198;BME280;30157;55.512;37.764;2024-02-26T06:12:47;101114.47;;;-3.75;75.20
44198;BME280;30157;55.512;37.764;2024-02-26T06:15:13;101115.22;;;-3.88;75.09
44198;BME280;30157;55.512;37.764;2024-02-26T06:17:39;101083.66;;;-4.03;75.19
44198;BME280;30157;55.512;37.764;2024-02-26T06:20:05;101141.28;;;-3.79;75.34
44198;BME280;30157;55.512;37.764;2024-02-26T06:22:32;101121.31;;;-3.62;74.95
44198;BME280;30157;55.512;37.764;2024-02-26T06:24:58;101080.06;;;-3.83;75.26
44198;BME280;30157;55.512;37.764;2024-02-26T06:27:23;101011.97;;;-4.13;75.12
44198;BME280;30157;55.512;37.764;2024-02-26T06:29:49;101080.84;;;-3.73;74.71
44198;BME280;30157;55.512;37.764;2024-02-26T06:32:15;101128.75;;;-3.30;74.38
44198;BME280;30157;55.512;37.764;2024-02-26T06:34:41;101002.47;;;-4.15;75.30
44198;BME280;30157;55.512;37.764;2024-02-26T06:37:10;101078.72;;;-3.66;74.78
44198;BME280;30157;55.512;37.764;2024-02-26T06:39:35;101099.50;;;-3.48;74.96
44198;BME280;30157;55.512;37.764;2024-02-26T06:42:01;101113.06;;;-3.24;74.67
44198;BME280;30157;55.512;37.764;2024-02-26T06:44:27;101077.31;;;-3.63;74.69
44198;BME280;30157;55.512;37.764;2024-02-26T06:47:00;101066.28;;;-3.63;74.86
44198;BME280;30157;55.512;37.764;2024-02-26T06:49:27;100983.44;;;-3.98;74.86
44198;BME280;30157;55.512;37.764;2024-02-26T06:51:53;101101.03;;;-3.27;74.13
44198;BME280;30157;55.512;37.764;2024-02-26T06:54:19;101154.03;;;-3.08;74.00
44198;BME280;30157;55.512;37.764;2024-02-26T06:56:45;101095.72;;;-3.18;74.09
44198;BME280;30157;55.512;37.764;2024-02-26T06:59:11;101119.13;;;-3.22;73.79
44198;BME280;30157;55.512;37.764;2024-02-26T07:01:37;101131.25;;;-2.94;74.18
44198;BME280;30157;55.512;37.764;2024-02-26T07:04:03;101016.13;;;-3.42;73.45
44198;BME280;30157;55.512;37.764;2024-02-26T07:06:28;101104.72;;;-2.98;73.63
44198;BME280;30157;55.512;37.764;2024-02-26T07:08:54;101100.09;;;-2.92;73.51
44198;BME280;30157;55.512;37.764;2024-02-26T07:11:20;101112.94;;;-2.53;72.52
44198;BME280;30157;55.512;37.764;2024-02-26T07:13:46;101082.06;;;-2.83;72.60
44198;BME280;30157;55.512;37.764;2024-02-26T07:16:12;101125.47;;;-2.43;72.00
44198;BME280;30157;55.512;37.764;2024-02-26T07:18:41;101096.88;;;-2.27;71.54
44198;BME280;30157;55.512;37.764;2024-02-26T07:21:07;101117.28;;;-2.39;71.68
44198;BME280;30157;55.512;37.764;2024-02-26T07:23:33;101093.41;;;-2.02;71.05
44198;BME280;30157;55.512;37.764;2024-02-26T07:25:59;101098.38;;;-2.17;70.80
44198;BME280;30157;55.512;37.764;2024-02-26T07:28:25;101094.34;;;-1.88;70.94
44198;BME280;30157;55.512;37.764;2024-02-26T07:30:50;101086.84;;;-1.60;68.81
44198;BME280;30157;55.512;37.764;2024-02-26T07:33:16;101093.78;;;-1.17;68.14
44198;BME280;30157;55.512;37.764;2024-02-26T07:35:42;100984.75;;;-1.49;66.82
44198;BME280;30157;55.512;37.764;2024-02-26T07:38:08;101065.47;;;-0.80;66.77
44198;BME280;30157;55.512;37.764;2024-02-26T07:40:33;101108.13;;;-0.77;66.19
44198;BME280;30157;55.512;37.764;2024-02-26T07:42:59;101105.53;;;-1.19;67.10
44198;BME280;30157;55.512;37.764;2024-02-26T07:45:25;101109.16;;;-1.02;66.64
44198;BME280;30157;55.512;37.764;2024-02-26T07:47:51;101096.72;;;-1.24;67.48
44198;BME280;30157;55.512;37.764;2024-02-26T07:50:17;101076.75;;;-1.45;67.35
44198;BME280;30157;55.512;37.764;2024-02-26T07:52:43;101082.25;;;-0.83;66.29
44198;BME280;30157;55.512;37.764;2024-02-26T07:55:10;100845.75;;;-2.03;66.20
44198;BME280;30157;55.512;37.764;2024-02-26T07:57:36;101031.72;;;-0.32;64.42
44198;BME280;30157;55.512;37.764;2024-02-26T08:00:03;101099.41;;;-0.24;64.79
44198;BME280;30157;55.512;37.764;2024-02-26T08:02:32;101090.25;;;-0.21;65.42
44198;BME280;30157;55.512;37.764;2024-02-26T08:04:59;101072.06;;;0.03;65.70
44198;BME280;30157;55.512;37.764;2024-02-26T08:07:25;101088.31;;;-0.25;65.26
44198;BME280;30157;55.512;37.764;2024-02-26T08:09:51;101073.31;;;0.10;65.19
44198;BME280;30157;55.512;37.764;2024-02-26T08:12:16;101090.81;;;0.19;64.09
44198;BME280;30157;55.512;37.764;2024-02-26T08:14:42;101088.53;;;0.23;65.01
44198;BME280;30157;55.512;37.764;2024-02-26T08:17:09;101089.94;;;0.18;63.76
44198;BME280;30157;55.512;37.764;2024-02-26T08:19:35;101090.78;;;0.63;63.26
44198;BME280;30157;55.512;37.764;2024-02-26T08:22:02;101015.91;;;-0.27;63.52
44198;BME280;30157;55.512;37.764;2024-02-26T08:24:28;101115.78;;;-0.49;65.71
44198;BME280;30157;55.512;37.764;2024-02-26T08:26:54;101100.22;;;-0.54;66.07
44198;BME280;30157;55.512;37.764;2024-02-26T08:29:19;101084.56;;;-0.45;65.51
44198;BME280;30157;55.512;37.764;2024-02-26T08:31:45;101097.66;;;-0.25;65.13
44198;BME280;30157;55.512;37.764;2024-02-26T08:34:11;101010.34;;;-0.93;65.29
44198;BME280;30157;55.512;37.764;2024-02-26T08:36:36;101089.75;;;-0.43;66.18
44198;BME280;30157;55.512;37.764;2024-02-26T08:39:02;101109.28;;;-0.15;65.78
44198;BME280;30157;55.512;37.764;2024-02-26T08:41:28;101035.81;;;-0.93;65.92
44198;BME280;30157;55.512;37.764;2024-02-26T08:43:54;101097.69;;;-0.95;67.68
44198;BME280;30157;55.512;37.764;2024-02-26T08:46:20;101096.63;;;-0.42;66.01
44198;BME280;30157;55.512;37.764;2024-02-26T08:48:46;101100.19;;;-0.25;65.35
44198;BME280;30157;55.512;37.764;2024-02-26T08:51:12;101095.13;;;0.05;63.96
44198;BME280;30157;55.512;37.764;2024-02-26T08:53:38;100978.22;;;-0.46;64.57
44198;BME280;30157;55.512;37.764;2024-02-26T08:56:05;101002.44;;;-0.09;62.83
44198;BME280;30157;55.512;37.764;2024-02-26T08:58:31;101073.63;;;0.16;63.23
44198;BME280;30157;55.512;37.764;2024-02-26T09:00:57;101041.44;;;0.18;63.21
44198;BME280;30157;55.512;37.764;2024-02-26T09:03:23;101079.56;;;0.30;62.37
44198;BME280;30157;55.512;37.764;2024-02-26T09:05:49;101103.06;;;0.39;62.05
44198;BME280;30157;55.512;37.764;2024-02-26T09:08:15;101099.75;;;-0.18;63.95
44198;BME280;30157;55.512;37.764;2024-02-26T09:10:41;101089.56;;;0.27;63.43
44198;BME280;30157;55.512;37.764;2024-02-26T09:13:07;101092.50;;;0.33;63.93
44198;BME280;30157;55.512;37.764;2024-02-26T09:15:33;100989.66;;;0.52;62.01
44198;BME280;30157;55.512;37.764;2024-02-26T09:17:59;101074.59;;;0.94;62.35
44198;BME280;30157;55.512;37.764;2024-02-26T09:20:25;101045.75;;;0.19;63.19
44198;BME280;30157;55.512;37.764;2024-02-26T09:22:51;101071.53;;;0.24;63.29
44198;BME280;30157;55.512;37.764;2024-02-26T09:25:17;101051.63;;;-0.27;63.53
44198;BME280;30157;55.512;37.764;2024-02-26T09:27:43;100998.56;;;-0.32;63.57
44198;BME280;30157;55.512;37.764;2024-02-26T09:30:10;100975.47;;;-0.64;63.32
44198;BME280;30157;55.512;37.764;2024-02-26T09:32:37;100966.50;;;-1.15;64.69
44198;BME280;30157;55.512;37.764;2024-02-26T09:35:03;101059.28;;;-0.27;64.40
44198;BME280;30157;55.512;37.764;2024-02-26T09:37:29;101039.72;;;-0.41;63.89
44198;BME280;30157;55.512;37.764;2024-02-26T09:39:55;101076.59;;;-0.36;64.34
44198;BME280;30157;55.512;37.764;2024-02-26T09:42:22;100974.00;;;-1.04;65.15
44198;BME280;30157;55.512;37.764;2024-02-26T09:44:53;101023.25;;;-0.90;65.82
44198;BME280;30157;55.512;37.764;2024-02-26T09:47:20;100998.25;;;-1.24;66.06
44198;BME280;30157;55.512;37.764;2024-02-26T09:49:47;100955.69;;;-1.11;66.12
44198;BME280;30157;55.512;37.764;2024-02-26T09:52:15;101051.44;;;-0.30;65.84
44198;BME280;30157;55.512;37.764;2024-02-26T09:54:42;101051.84;;;-0.52;65.16
44198;BME280;30157;55.512;37.764;2024-02-26T09:57:13;101028.38;;;-0.75;65.71
44198;BME280;30157;55.512;37.764;2024-02-26T09:59:42;100971.50;;;-1.17;66.29
44198;BME280;30157;55.512;37.764;2024-02-26T10:02:12;101086.50;;;-0.41;65.58
44198;BME280;30157;55.512;37.764;2024-02-26T10:04:42;100986.34;;;-0.81;65.44
44198;BME280;30157;55.512;37.764;2024-02-26T10:07:12;101064.03;;;-0.33;65.26
44198;BME280;30157;55.512;37.764;2024-02-26T10:09:38;101065.00;;;-0.59;65.97
44198;BME280;30157;55.512;37.764;2024-02-26T10:12:05;101041.84;;;-0.34;65.55
44198;BME280;30157;55.512;37.764;2024-02-26T10:14:33;100947.88;;;-1.14;65.68
44198;BME280;30157;55.512;37.764;2024-02-26T10:16:59;100972.03;;;-0.79;65.49
44198;BME280;30157;55.512;37.764;2024-02-26T10:19:27;101046.69;;;-0.39;65.99
44198;BME280;30157;55.512;37.764;2024-02-26T10:21:59;101027.03;;;-0.55;66.28
44198;BME280;30157;55.512;37.764;2024-02-26T10:24:29;101038.16;;;-0.68;66.43
44198;BME280;30157;55.512;37.764;2024-02-26T10:26:56;101004.59;;;-0.60;65.81
44198;BME280;30157;55.512;37.764;2024-02-26T10:29:25;101069.50;;;-0.27;65.56
44198;BME280;30157;55.512;37.764;2024-02-26T10:31:52;100964.19;;;-0.82;65.34
44198;BME280;30157;55.512;37.764;2024-02-26T10:34:18;101062.63;;;-0.28;65.40
44198;BME280;30157;55.512;37.764;2024-02-26T10:36:44;101027.72;;;-0.57;66.26
44198;BME280;30157;55.512;37.764;2024-02-26T10:39:13;101030.38;;;-0.56;65.83
44198;BME280;30157;55.512;37.764;2024-02-26T10:41:41;101036.16;;;-0.58;66.54
44198;BME280;30157;55.512;37.764;2024-02-26T10:44:10;101043.66;;;-0.46;66.38
44198;BME280;30157;55.512;37.764;2024-02-26T10:46:37;101002.59;;;-0.51;65.64
44198;BME280;30157;55.512;37.764;2024-02-26T10:49:04;101026.22;;;-0.10;65.48
44198;BME280;30157;55.512;37.764;2024-02-26T10:51:31;101042.75;;;-0.04;64.98
44198;BME280;30157;55.512;37.764;2024-02-26T10:53:58;101029.19;;;0.12;64.73
44198;BME280;30157;55.512;37.764;2024-02-26T10:56:27;101031.91;;;0.30;64.92
44198;BME280;30157;55.512;37.764;2024-02-26T10:58:56;100962.31;;;-0.12;64.39
44198;BME280;30157;55.512;37.764;2024-02-26T11:01:27;101001.25;;;0.30;64.75
44198;BME280;30157;55.512;37.764;2024-02-26T11:03:55;100728.84;;;-1.28;63.87
44198;BME280;30157;55.512;37.764;2024-02-26T11:06:22;101022.38;;;0.28;64.68
44198;BME280;30157;55.512;37.764;2024-02-26T11:08:49;101029.66;;;0.52;64.86
44198;BME280;30157;55.512;37.764;2024-02-26T11:11:17;101008.75;;;0.59;64.03
44198;BME280;30157;55.512;37.764;2024-02-26T11:13:46;101024.66;;;0.70;63.86
44198;BME280;30157;55.512;37.764;2024-02-26T11:16:18;101024.50;;;0.66;64.22
44198;BME280;30157;55.512;37.764;2024-02-26T11:18:46;100975.09;;;0.35;64.66
44198;BME280;30157;55.512;37.764;2024-02-26T11:21:18;100973.28;;;0.48;63.80
44198;BME280;30157;55.512;37.764;2024-02-26T11:23:48;100904.03;;;0.27;64.63
44198;BME280;30157;55.512;37.764;2024-02-26T11:26:26;100927.03;;;0.27;64.38
44198;BME280;30157;55.512;37.764;2024-02-26T11:28:53;100995.94;;;0.74;63.68
44198;BME280;30157;55.512;37.764;2024-02-26T11:31:19;101005.44;;;0.76;63.80
44198;BME280;30157;55.512;37.764;2024-02-26T11:33:58;100940.81;;;0.62;63.49
44198;BME280;30157;55.512;37.764;2024-02-26T11:36:26;101000.91;;;1.04;63.27
44198;BME280;30157;55.512;37.764;2024-02-26T11:38:52;101004.00;;;0.81;63.60
44198;BME280;30157;55.512;37.764;2024-02-26T11:41:22;100914.91;;;0.23;63.89
44198;BME280;30157;55.512;37.764;2024-02-26T11:43:58;100989.97;;;0.90;62.95
44198;BME280;30157;55.512;37.764;2024-02-26T11:46:33;100966.59;;;0.50;62.86
44198;BME280;30157;55.512;37.764;2024-02-26T11:49:01;100999.66;;;0.64;63.25
44198;BME280;30157;55.512;37.764;2024-02-26T11:51:34;100978.22;;;0.45;63.34
44198;BME280;30157;55.512;37.764;2024-02-26T11:54:00;100927.66;;;0.23;62.95
44198;BME280;30157;55.512;37.764;2024-02-26T11:56:26;100948.47;;;0.46;62.64
44198;BME280;30157;55.512;37.764;2024-02-26T11:58:56;100888.72;;;-0.04;63.34
44198;BME280;30157;55.512;37.764;2024-02-26T12:04:15;100887.72;;;-0.38;63.52
44198;BME280;30157;55.512;37.764;2024-02-26T12:09:11;100965.09;;;0.08;61.49
44198;BME280;30157;55.512;37.764;2024-02-26T12:11:39;100870.84;;;-0.65;62.37
44198;BME280;30157;55.512;37.764;2024-02-26T12:14:07;100937.31;;;-0.32;61.15
44198;BME280;30157;55.512;37.764;2024-02-26T12:16:38;100998.22;;;-0.24;61.58
44198;BME280;30157;55.512;37.764;2024-02-26T12:19:06;100999.59;;;0.01;61.11
44198;BME280;30157;55.512;37.764;2024-02-26T12:21:36;100958.25;;;-0.23;60.71
44198;BME280;30157;55.512;37.764;2024-02-26T12:24:13;100986.78;;;-0.15;59.97
44198;BME280;30157;55.512;37.764;2024-02-26T12:26:40;100971.63;;;-0.57;58.93
44198;BME280;30157;55.512;37.764;2024-02-26T12:29:06;100938.09;;;-0.63;59.52
44198;BME280;30157;55.512;37.764;2024-02-26T12:31:33;100870.94;;;-0.79;59.09
44198;BME280;30157;55.512;37.764;2024-02-26T12:34:00;100974.09;;;-0.14;59.44
44198;BME280;30157;55.512;37.764;2024-02-26T12:36:26;100943.41;;;-0.45;59.28
44198;BME280;30157;55.512;37.764;2024-02-26T12:38:53;100856.78;;;-1.04;58.68
44198;BME280;30157;55.512;37.764;2024-02-26T12:41:20;101000.69;;;-0.10;57.98
44198;BME280;30157;55.512;37.764;2024-02-26T12:43:46;100912.09;;;-0.58;57.23